Hovedside
METAR-TAF:

METAR-TAF

Lufthavner :

Iqaluit, Nunavut, Canada

breddegrad: 63-45N, lengdegrad: 068-33W, høyde over havet: 34 m

Gjeldene værobservasjon

Denne rapporten ble laget for 52 minutter siden, klokken 17:00 UTC
Vind 7 kt fra Vest-nordvest
Temperatur -8°C
Luftfuktighet 57%
Trykk 1013 hPa
Sikt: 48.3 km
Få skyer i en høyde av 200 ft
Få skyer i en høyde av 16000 ft

METAR: CYFB 211700Z 30007KT 30SM FEW002 FEW160 M08/M15 A2992 RMK ST1AS1 ST TR AS TR SLP137

Tid: 13:52 (17:52 UTC)

Varsel

Denne rapporten ble laget for 14 minutter siden, klokken 17:38 UTC
Varsel gyldig fra 21. klokken 18 UTC til 22. klokken 18 UTC
Vind 8 kt fra Vest-nordvest
Sikt: 10 km
Få skyer i en høyde av 200 ft
Spredte skyer i en høyde av 16000 ft
Blir
fra 22. klokken 04 UTC til 22. klokken 06 UTC
Vind 6 kt fra Nord
Fra 22. klokken 1200 UTC
Vind 8 kt fra Nord-nordvest
Sikt: 10 km
Skyfri himmel

TAF: CYFB 211738Z 2118/2218 30008KT P6SM FEW002 SCT160 BECMG 2204/2206 35006KT FM221200 33008KT P6SM SKC RMK NXT FCST BY 220000Z

Værobservasjoner og værvarsel for over 4000 flyplasser (METAR- og TAF-rapporter).

Tilgjengelige stasjoner er representert av de røde og gule prikkene på kartet.

Hold musepekeren over prikken for å se navnet på stasjonen.

Klikk så for å se værobservasjoner og -varsler.

For å forandre kartet kan du klikke på den grønne knappen med svart kryss for å zoome inn, på den grønne knappen med strek for å zoome ut, eller på de grønne pilene for å se tilstøtende kart.


METAR-TAF: